Terminal Aerodrome Forecast
Issued by NWS Spokane, WA

Home | Current Version | Previous Version | Text Only | Print | Product List | Glossary On
Versions: 1 2 3 4 5 6 7 8 9 10 11 12 13
000
FTUS46 KOTX 302328
TAFEAT
TAF
KEAT 302328Z 3100/3124 14006KT P6SM VCSH BKN120 OVC200
     FM310200 32011KT P6SM SCT150
     FM310700 30010KT P6SM SKC
     FM311500 31006KT P6SM FEW100=

USA.gov is the U.S. government's official web portal to all federal, state and local government web resources and services.